Terminal Aerodrome Forecast
Issued by NWS

Home | Current Version | Previous Version | Text Only | Print | Product List | Glossary On
Versions: 1 2 3 4 5 6 7 8 9 10 11 12 13 14 15 16 17 18 19 20 21 22 23 24 25 26 27 28 29 30 31 32
176
FTAK31 PANC 300537
TAFAIL
TAF
PAIL 300537Z 3006/3106 21008KT P6SM VCSH SCT020 OVC045
     FM301000 22010KT P6SM VCSH OVC020
     FM302200 19008KT P6SM VCSH BKN035=

USA.gov is the U.S. government's official web portal to all federal, state and local government web resources and services.